• Join FlightAware (Why Join?)
  • Login
  • US Flag 
02:59PM EDT


 

Airport Tracker/Info


-or-


 

Live Flight TrackerFlight Track Log ✈ UAL4401 ✈ 22-Sep-2013 ✈ KIAH - KIAD

Flight Track Log - Related Links

Times and Time Zones

All times are in EDT time to prevent confusion due to time zone crossing. See the UAL4401 flight status page for this flight to view local times or setup timezone preferences in your user account.

Time Position Orientation Groundspeed Altitude Reporting Facility
EDT Latitude Longitude Course Direction KTS MPH feet Rate Location/Type
08:49PM 29.9575 -95.3442 90° East 168 193 600  Level Houston Center
08:50PM 29.9342 -95.2939 118° Southeast 195 224 2,300 1,560 Climbing Houston Center
08:51PM 29.9303 -95.2786 106° East 188 216 2,800 1,440 Climbing Houston Center
08:52PM 29.9219 -95.2019 97° East 237 273 4,300 1,800 Climbing Houston Center
08:53PM 30.2503 -94.9194 97° East  Level Estimated
08:53PM 29.9242 -95.1181 88° East 260 299 6,600  Level Houston Center
08:54PM 30.1798 -94.8174 129° Southeast  Level FlightAware Approximate
08:54PM 29.9339 -95.0325 83° East 267 307 9,000  Level Houston Center
08:55PM 30.2466 -94.7120 90° East  Level Estimated
08:55PM 29.9408 -94.9436 85° East 275 316 10,400  Level Houston Center
08:56PM 29.9261 -94.8408 99° East 315 362 11,300 1,260 Climbing Houston Center
08:57PM 29.9139 -94.7328 97° East 333 383 13,000 1,440 Climbing Houston Center
08:58PM 29.9014 -94.6242 98° East 340 391 14,300 1,380 Climbing Houston Center
08:59PM 29.8842 -94.4906 98° East 348 400 15,900 1,560 Climbing Houston Center
09:00PM 29.8697 -94.3789 98° East 351 404 17,500 1,260 Climbing Houston Center
09:01PM 29.8597 -94.2667 96° East 352 405 18,600 1,020 Climbing Houston Center
09:02PM 29.8575 -94.1628 91° East 355 409 19,600 960 Climbing Houston Center
09:03PM 29.8553 -94.0461 91° East 363 418 20,600 1,020 Climbing Houston Center
09:04PM 29.8794 -93.9072 79° East 367 422 21,700 1,020 Climbing Houston Center
09:05PM 29.9006 -93.7889 78° East 378 435 22,700 900 Climbing Houston Center
09:06PM 29.9281 -93.6728 75° East 378 435 23,600 840 Climbing Houston Center
09:07PM 29.9569 -93.5581 74° East 376 433 24,500 900 Climbing Houston Center
09:08PM 29.9853 -93.4414 74° East 380 437 25,500 960 Climbing Houston Center
09:09PM 30.0136 -93.3281 74° East 375 432 26,500 900 Climbing Houston Center
09:10PM 30.0414 -93.2147 74° East 371 427 27,400 900 Climbing Houston Center
09:11PM 30.0694 -93.1025 74° East 368 423 28,400 1,020 Climbing Houston Center
09:12PM 30.1028 -92.9694 74° East 362 417 29,500 960 Climbing Houston Center
09:13PM 30.1297 -92.8614 74° East 355 409 30,400 720 Climbing Houston Center
09:14PM 30.1558 -92.7517 75° East 355 409 31,000 540 Climbing Houston Center
09:15PM 30.1836 -92.6403 74° East 361 415 31,500 660 Climbing Houston Center
09:16PM 30.2106 -92.5281 74° East 365 420 32,400 780 Climbing Houston Center
09:17PM 30.2383 -92.4172 74° East 362 417 33,200 600 Climbing Houston Center
09:18PM 30.2658 -92.3031 74° East 359 413 33,700 480 Climbing Houston Center
09:19PM 30.2914 -92.1900 75° East 365 420 34,200 540 Climbing Houston Center
09:20PM 30.3206 -92.0758 73° East 369 425 34,900 360 Climbing Houston Center
09:21PM 30.3469 -91.9614 75° East 371 427 35,000  Climbing Houston Center
09:22PM 30.3814 -91.8153 75° East 391 450 35,000  Level Houston Center
09:23PM 30.4083 -91.7031 74° East 407 468 35,000  Level Houston Center
09:24PM 30.4397 -91.5733 74° East 418 481 35,000  Level Houston Center
09:25PM 30.4714 -91.4392 75° East 431 496 35,000  Level Houston Center
09:26PM 30.5036 -91.3036 75° East 436 502 35,000  Level Houston Center
09:27PM 30.5417 -91.1389 75° East 441 507 35,000  Level Houston Center
09:28PM 30.5808 -91.0064 71° East 435 501 35,000  Level Houston Center
09:29PM 30.6300 -90.8783 66° East 435 501 35,000  Level Houston Center
09:30PM 30.6778 -90.7483 67° East 436 502 35,000  Level Houston Center
09:31PM 30.7267 -90.6183 66° East 438 504 35,000  Level Houston Center
09:32PM 30.7742 -90.4889 67° East 436 502 35,000  Level Houston Center
09:34PM 30.8242 -90.3575 66° East 440 506 35,000  Level Houston Center
09:35PM 30.8711 -90.2258 67° East 440 506 35,000  Level Houston Center
09:36PM 30.9197 -90.0947 67° East 440 506 35,000  Level Houston Center
09:37PM 30.9669 -89.9639 67° East 436 502 35,000  Level Houston Center
09:38PM 31.0139 -89.8331 67° East 437 503 35,000  Level Houston Center
09:39PM 31.0619 -89.7033 67° East 435 501 35,000  Level Houston Center
09:40PM 31.1083 -89.5733 67° East 434 499 35,000  Level Houston Center
09:41PM 31.1553 -89.4425 67° East 436 502 35,000  Level Houston Center
09:42PM 31.2025 -89.3086 68° East 443 510 35,000  Level Houston Center
09:43PM 31.2561 -89.1589 67° East 448 516 35,000  Level Houston Center
09:44PM 31.3044 -89.0247 67° East 448 516 35,000  Level Houston Center
09:45PM 31.3519 -88.8892 68° East 449 517 35,000  Level Houston Center
09:46PM 31.3997 -88.7517 68° East 454 522 35,000  Level Houston Center
09:47PM 31.4486 -88.6147 67° East 453 521 35,000  Level Houston Center
09:48PM 31.4961 -88.4764 68° East 455 524 35,000  Level Houston Center
09:49PM 31.5453 -88.3381 67° East 457 526 35,000  Level Houston Center
09:50PM 31.5933 -88.1983 68° East 458 527 35,000  Level Houston Center
09:51PM 31.6425 -88.0567 68° East 465 535 35,000  Level Houston Center
09:52PM 31.6917 -87.9111 68° East 466 536 35,000  Level Houston Center
09:53PM 31.7486 -87.7797 63° Northeast 464 534 35,000  Level Houston Center
09:54PM 31.8258 -87.6578 53° Northeast 464 534 35,000  Level Houston Center
09:55PM 31.9011 -87.5333 55° Northeast 466 536 35,000  Level Houston Center
09:56PM 31.9778 -87.4100 54° Northeast 467 537 35,000  Level Houston Center
09:57PM 32.0519 -87.2842 55° Northeast 466 536 35,000  Level Houston Center
09:58PM 32.1256 -87.1525 57° Northeast 467 537 35,000  Level Houston Center
09:59PM 32.2158 -87.0117 53° Northeast 463 533 35,000  Level Atlanta Center
10:00PM 32.2878 -86.8864 56° Northeast 463 533 35,000  Level Atlanta Center
10:01PM 32.3658 -86.7586 54° Northeast 463 533 35,000  Level Atlanta Center
10:02PM 32.4478 -86.6331 52° Northeast 469 540 35,000  Level Atlanta Center
10:03PM 32.5194 -86.4997 57° Northeast 474 545 35,000  Level Atlanta Center
10:04PM 32.5950 -86.3686 56° Northeast 474 545 35,000  Level Atlanta Center
10:05PM 32.6725 -86.2400 54° Northeast 474 545 35,000  Level Atlanta Center
10:06PM 32.7478 -86.1108 55° Northeast 479 551 35,000  Level Atlanta Center
10:07PM 32.8208 -85.9817 56° Northeast 473 544 35,000  Level Atlanta Center
10:08PM 32.8958 -85.8522 55° Northeast 473 544 35,000  Level Atlanta Center
10:09PM 32.9731 -85.7175 56° Northeast 478 550 35,000  Level Atlanta Center
10:10PM 33.0497 -85.5903 54° Northeast 478 550 35,000  Level Atlanta Center
10:11PM 33.1094 -85.4822 57° Northeast 478 550 35,000  Level Atlanta Center
10:12PM 33.1989 -85.3322 54° Northeast 467 537 35,000  Level Atlanta Center
10:13PM 33.2753 -85.1992 55° Northeast 467 537 35,000  Level Atlanta Center
10:14PM 33.3517 -85.0658 56° Northeast 477 549 35,000  Level Atlanta Center
10:15PM 33.4258 -84.9350 56° Northeast 477 549 35,000  Level Atlanta Center
10:16PM 33.4997 -84.8011 56° Northeast 482 555 35,000  Level Atlanta Center
10:17PM 33.5756 -84.6672 56° Northeast 482 555 35,000  Level Atlanta Center
10:18PM 33.6431 -84.5453 56° Northeast 483 556 35,000  Level Atlanta Center
10:19PM 33.7228 -84.4011 56° Northeast 472 543 35,000  Level Atlanta Center
10:20PM 33.7961 -84.2664 57° Northeast 472 543 35,000  Level Atlanta Center
10:21PM 33.8714 -84.1314 56° Northeast 481 554 35,000  Level Atlanta Center
10:22PM 33.9467 -83.9986 56° Northeast 481 554 35,000  Level Atlanta Center
10:23PM 34.0194 -83.8633 57° Northeast 481 554 35,000  Level Atlanta Center
10:24PM 34.0922 -83.7278 57° Northeast 481 554 35,000  Level Atlanta Center
10:25PM 34.1669 -83.5969 55° Northeast 481 554 35,000  Level Atlanta Center
10:26PM 34.2394 -83.4608 57° Northeast 481 554 35,000  Level Atlanta Center
10:27PM 34.3036 -83.3372 58° Northeast 481 554 35,000  Level Atlanta Center
10:28PM 34.3758 -83.2006 57° Northeast 488 562 35,000  Level Atlanta Center
10:29PM 34.4500 -83.0664 56° Northeast 482 555 35,000  Level Atlanta Center
10:30PM 34.5239 -82.9319 56° Northeast 482 555 35,000  Level Atlanta Center
10:31PM 34.5978 -82.7997 56° Northeast 477 549 35,000  Level Atlanta Center
10:32PM 34.6756 -82.6547 57° Northeast 477 549 35,000  Level Atlanta Center
10:33PM 34.7469 -82.5169 58° Northeast 472 543 35,000  Level Atlanta Center
10:34PM 34.8183 -82.3867 56° Northeast 465 535 35,000  Level Atlanta Center
10:35PM 34.8894 -82.2511 57° Northeast 465 535 35,000  Level Atlanta Center
10:36PM 34.9583 -82.1203 57° Northeast 465 535 35,000  Level Atlanta Center
10:37PM 35.0292 -81.9842 58° Northeast 465 535 35,000  Level Atlanta Center
10:38PM 35.1000 -81.8506 57° Northeast 459 528 35,000  Level Atlanta Center
10:39PM 35.1706 -81.7139 58° Northeast 459 528 35,000  Level Atlanta Center
10:40PM 35.2367 -81.5797 59° Northeast 464 534 35,000  Level Atlanta Center
10:41PM 35.3069 -81.4428 58° Northeast 464 534 35,000  Level Atlanta Center
10:42PM 35.3769 -81.3056 58° Northeast 464 534 35,000  Level Atlanta Center
10:43PM 35.4489 -81.1681 57° Northeast 464 534 35,000  Level Atlanta Center
10:44PM 35.5356 -81.0350 51° Northeast 482 555 35,000  Level Atlanta Center
10:45PM 35.6200 -80.9092 50° Northeast 489 563 35,000 -360 Level Atlanta Center
10:46PM 35.7042 -80.7808 51° Northeast 484 557 34,300 -720 Descending Atlanta Center
10:48PM 35.8597 -80.5358 52° Northeast 478 550 33,000 -480 Descending Washington Center
10:49PM 35.9422 -80.4103 51° Northeast 472 543 33,000  Level Washington Center
10:50PM 36.0225 -80.2789 53° Northeast 472 543 33,000  Level Washington Center
10:51PM 36.1025 -80.1553 51° Northeast 472 543 33,000  Level Washington Center
10:52PM 36.1753 -80.0461 50° Northeast 472 543 33,000  Level Washington Center
10:53PM 36.2553 -79.9194 52° Northeast 467 537 33,000  Level Washington Center
10:54PM 36.3439 -79.7747 53° Northeast 477 549 33,000 -120 Level Washington Center
10:55PM 36.4233 -79.6472 52° Northeast 483 556 32,800 -660 Descending Washington Center
10:56PM 36.5050 -79.5144 53° Northeast 483 556 31,800 -960 Descending Washington Center
10:57PM 36.5864 -79.3842 52° Northeast 478 550 30,900 -900 Descending Washington Center
10:58PM 36.6589 -79.2661 53° Northeast 472 543 30,000 -960 Descending Washington Center
10:59PM 36.7400 -79.1350 52° Northeast 472 543 29,000 -1,020 Descending Washington Center
11:00PM 36.8211 -79.0039 52° Northeast 472 543 28,000 -1,080 Descending Washington Center
11:01PM 36.9086 -78.8569 53° Northeast 472 543 26,900 -1,080 Descending Washington Center
11:02PM 36.9892 -78.7278 52° Northeast 477 549 25,900 -960 Descending Washington Center
11:03PM 37.0697 -78.5983 52° Northeast 472 543 25,000 -480 Descending Washington Center
11:04PM 37.1394 -78.4811 53° Northeast 472 543 25,000  Level Washington Center
11:05PM 37.2131 -78.3589 53° Northeast 462 532 25,000  Level Washington Center
11:06PM 37.2847 -78.2414 53° Northeast 443 510 25,000  Level Washington Center
11:07PM 37.3539 -78.1236 54° Northeast 422 486 25,000 -480 Level Washington Center
11:08PM 37.4211 -78.0081 54° Northeast 412 474 24,100 -960 Descending Washington Center
11:09PM 37.4900 -77.8953 52° Northeast 412 474 23,100 -1,020 Descending Washington Center
11:10PM 37.5689 -77.8058 42° Northeast 399 459 22,100 -1,140 Descending Washington Center
11:11PM 37.6681 -77.7483 25° Northeast 378 435 20,900 -1,680 Descending Washington Center
11:12PM 37.7628 -77.6933 25° Northeast 378 435 18,800 -2,100 Descending Washington Center
11:13PM 37.8514 -77.6406 25° Northeast 365 420 16,700 -2,220 Descending Washington Center
11:14PM 37.9378 -77.5875 26° Northeast 354 407 14,400 -2,340 Descending Washington Center
11:15PM 38.0219 -77.5397 24° Northeast 339 390 12,100 -2,100 Descending Washington Center
11:16PM 38.1125 -77.4892 24° Northeast 333 383 10,200 -1,140 Descending Washington Center
11:17PM 38.1861 -77.4461 25° Northeast 309 356 9,900 -600 Descending Washington Center
11:18PM 38.2589 -77.4506 357° North 268 308 9,100 -900 Descending Washington Center
11:19PM 38.3342 -77.4472 North 268 308 8,100 -1,260 Descending Washington Center
11:20PM 38.4092 -77.4464 360° North 268 308 6,700 -1,440 Descending Washington Center
11:21PM 38.4800 -77.4456 North 263 303 5,300 -1,200 Descending Washington Center
11:22PM 38.5489 -77.4447 North 257 296 4,400 -660 Descending Washington Center
11:23PM 38.6178 -77.4436 North 245 282 4,000 -240 Descending Washington Center
11:24PM 38.6667 -77.4333 North 241 277 4,000 -60 Level Potomac TRACON
11:25PM 38.7333 -77.4333 360° North 237 273 3,900 -480 Descending Potomac TRACON
11:25PM 38.7833 -77.4333 360° North 230 265 3,100 -1,260 Descending Potomac TRACON
11:26PM 38.8500 -77.4333 360° North 209 241 1,600 -1,080 Descending Potomac TRACON
11:28PM 38.8833 -77.4333 360° North 154 177 900 -660 Descending Potomac TRACON